Lowake, Texas
Current Conditions -  °F | °C
As of 9:51 AM on Thursday 30 Oct 2014 (Local Time) from KSJT Reporting Station
Clear Clear  
Wind Chill: 67°   Ceiling: Unl
Heat Index: 67°   Visibility: 10mi
Dew Point: 60°   Wind: 9mph
Humidity: 79%   Direction: 190°S
Pressure: 30.14"   Gusts: NA
Location:  31.57°N, 100.08°W
Report Text: KSJT 301451Z 19008KT 10SM CLR 19/16 A3014 RMK AO2 SLP194 T01940156 51010
Loading
Personal Weather Stations






























Interactive Weather Map
Tropical Storm Tracking
New forecast layout! Learn more

10-Day Weather Forecast

Advertisements
Track Severe Weather on mobile